Time;durP1;ratioP1;P1;durP2;ratioP2;P2;SDS_P1;SDS_P2;PMS_P1;PMS_P2;Temp;Humidity;BMP_temperature;BMP_pressure;BME280_temperature;BME280_humidity;BME280_pressure;Samples;Min_cycle;Max_cycle;Signal;HPM_P1;HPM_P2
2021/12/11 00:00:14;;;;;;;55.45;16.92;;;;;;;;;;4919920;29;20384;-84
2021/12/11 00:02:50;;;;;;;47.58;17.25;;;;;;;;;;4924681;28;20482;-84
2021/12/11 00:05:17;;;;;;;47.47;16.42;;;;;;;;;;4907546;29;20408;-84
2021/12/11 00:07:43;;;;;;;51.42;18.15;;;;;;;;;;4901016;29;20280;-84
2021/12/11 00:10:15;;;;;;;40.60;16.83;;;;;;;;;;4903220;29;20051;-85
2021/12/11 00:12:45;;;;;;;42.05;17.48;;;;;;;;;;4904612;29;20522;-85
2021/12/11 00:15:15;;;;;;;79.30;30.35;;;;;;;;;;4917794;29;20060;-85
2021/12/11 00:17:42;;;;;;;55.25;22.13;;;;;;;;;;4920324;29;20540;-84
2021/12/11 00:20:16;;;;;;;46.50;19.13;;;;;;;;;;4924623;29;20079;-84
2021/12/11 00:22:44;;;;;;;50.75;17.42;;;;;;;;;;4917853;29;20024;-85
2021/12/11 00:25:11;;;;;;;44.88;18.58;;;;;;;;;;4921275;29;20366;-85
2021/12/11 00:27:47;;;;;;;56.70;20.13;;;;;;;;;;4921653;29;20039;-85
2021/12/11 00:30:22;;;;;;;42.05;18.65;;;;;;;;;;4910286;29;20698;-85
2021/12/11 00:32:48;;;;;;;;;;;;;;;;;;4922752;29;20419;-84
2021/12/11 00:35:18;;;;;;;50.95;19.40;;;;;;;;;;4907708;29;19914;-84
2021/12/11 00:37:46;;;;;;;52.15;19.40;;;;;;;;;;4921054;29;20114;-85
2021/12/11 00:40:23;;;;;;;50.92;19.13;;;;;;;;;;4909638;29;20491;-84
2021/12/11 00:42:51;;;;;;;49.13;19.13;;;;;;;;;;4908727;29;20035;-85
2021/12/11 00:45:20;;;;;;;38.72;16.65;;;;;;;;;;4925040;29;20126;-83
2021/12/11 00:47:50;;;;;;;47.58;17.27;;;;;;;;;;4907894;29;20068;-84
2021/12/11 00:50:18;;;;;;;40.28;17.35;;;;;;;;;;4906843;29;20077;-82
2021/12/11 00:52:51;;;;;;;45.33;18.25;;;;;;;;;;4904947;29;20399;-83
2021/12/11 00:55:21;;;;;;;50.38;17.77;;;;;;;;;;4911747;29;20409;-83
2021/12/11 00:57:48;;;;;;;45.63;18.50;;;;;;;;;;4907723;29;20051;-84
2021/12/11 01:00:20;;;;;;;42.45;17.60;;;;;;;;;;4917065;29;20447;-83
2021/12/11 01:02:52;;;;;;;51.20;19.35;;;;;;;;;;4910645;28;20385;-83
2021/12/11 01:05:19;;;;;;;54.50;19.58;;;;;;;;;;4904337;29;20180;-84
2021/12/11 01:07:47;;;;;;;61.58;20.90;;;;;;;;;;4916964;29;20039;-85
2021/12/11 01:10:23;;;;;;;56.30;21.40;;;;;;;;;;4910489;29;20411;-83
2021/12/11 01:12:57;;;;;;;47.08;18.80;;;;;;;;;;4925616;29;20533;-85
2021/12/11 01:15:37;;;;;;;66.05;21.10;;;;;;;;;;4907910;29;20131;-83
2021/12/11 01:18:22;;;;;;;55.45;20.27;;;;;;;;;;4905659;29;20086;-84
2021/12/11 01:21:02;;;;;;;53.97;20.45;;;;;;;;;;4930146;29;20436;-83
2021/12/11 01:23:55;;;;;;;58.30;18.70;;;;;;;;;;4923434;29;20036;-84
2021/12/11 01:26:22;;;;;;;45.88;17.85;;;;;;;;;;4929972;29;20677;-82
2021/12/11 01:28:51;;;;;;;49.40;16.05;;;;;;;;;;4920946;29;20103;-84
2021/12/11 01:31:20;;;;;;;44.33;19.27;;;;;;;;;;4928627;29;20031;-83
2021/12/11 01:33:47;;;;;;;54.72;18.17;;;;;;;;;;4920760;29;20040;-85
2021/12/11 01:36:16;;;;;;;49.72;18.13;;;;;;;;;;4937900;29;20086;-84
2021/12/11 01:38:43;;;;;;;50.10;18.42;;;;;;;;;;4907256;29;20035;-84
2021/12/11 01:41:12;;;;;;;48.75;19.25;;;;;;;;;;4913059;29;20492;-83
2021/12/11 01:43:40;;;;;;;54.75;19.13;;;;;;;;;;4918217;29;20027;-84
2021/12/11 01:46:08;;;;;;;50.28;18.70;;;;;;;;;;4911925;29;20122;-84
2021/12/11 01:48:37;;;;;;;54.72;20.65;;;;;;;;;;4923175;29;20036;-84
2021/12/11 01:51:08;;;;;;;52.17;19.10;;;;;;;;;;4924084;29;20052;-84
2021/12/11 01:53:37;;;;;;;51.88;19.75;;;;;;;;;;4922934;29;20036;-84
2021/12/11 01:56:16;;;;;;;55.72;19.92;;;;;;;;;;4924129;29;20468;-84
2021/12/11 01:58:48;;;;;;;59.33;20.75;;;;;;;;;;4920352;29;20456;-84
2021/12/11 02:01:28;;;;;;;56.60;19.92;;;;;;;;;;4923138;29;20055;-85
2021/12/11 02:04:03;;;;;;;45.33;18.98;;;;;;;;;;4928401;28;20048;-85
2021/12/11 02:06:35;;;;;;;40.15;17.10;;;;;;;;;;4921869;29;20067;-84
2021/12/11 02:09:21;;;;;;;40.92;17.02;;;;;;;;;;4920717;29;20440;-84
2021/12/11 02:11:52;;;;;;;53.75;19.20;;;;;;;;;;4908975;29;20135;-85
2021/12/11 02:14:31;;;;;;;58.15;19.10;;;;;;;;;;4919102;29;20035;-84
2021/12/11 02:17:01;;;;;;;58.88;17.77;;;;;;;;;;4910916;29;20419;-83
2021/12/11 02:19:32;;;;;;;55.28;19.65;;;;;;;;;;4923561;29;20143;-85
2021/12/11 02:22:02;;;;;;;59.47;21.20;;;;;;;;;;4907809;29;20532;-84
2021/12/11 02:24:38;;;;;;;57.33;21.33;;;;;;;;;;4916601;29;20098;-83
2021/12/11 02:27:14;;;;;;;;;;;;;;;;;;4909322;29;20076;-85
2021/12/11 02:29:42;;;;;;;54.42;18.38;;;;;;;;;;4918459;29;20014;-84
2021/12/11 02:32:32;;;;;;;50.08;17.75;;;;;;;;;;4914975;29;20063;-83
2021/12/11 02:35:03;;;;;;;52.40;18.75;;;;;;;;;;4910280;29;20039;-84
2021/12/11 02:37:38;;;;;;;60.63;19.50;;;;;;;;;;4904351;29;20048;-83
2021/12/11 02:40:20;;;;;;;65.40;19.47;;;;;;;;;;4903765;29;20551;-84
2021/12/11 02:43:06;;;;;;;53.22;19.35;;;;;;;;;;4924488;29;20634;-83
2021/12/11 02:45:42;;;;;;;49.30;18.80;;;;;;;;;;4921471;29;20082;-85
2021/12/11 02:48:19;;;;;;;42.92;17.10;;;;;;;;;;4905600;29;20058;-84
2021/12/11 02:50:52;;;;;;;48.03;17.30;;;;;;;;;;4907729;29;20054;-84
2021/12/11 02:53:35;;;;;;;49.92;17.95;;;;;;;;;;4904753;29;20994;-83
2021/12/11 02:56:03;;;;;;;48.20;17.83;;;;;;;;;;4924517;29;20031;-84
2021/12/11 02:58:33;;;;;;;45.58;18.02;;;;;;;;;;4904193;29;20126;-83
2021/12/11 03:01:03;;;;;;;49.88;18.70;;;;;;;;;;4910782;29;20028;-84
2021/12/11 03:03:41;;;;;;;58.47;20.83;;;;;;;;;;4927661;28;20083;-84
2021/12/11 03:06:17;;;;;;;44.40;18.33;;;;;;;;;;4921006;29;20495;-83
2021/12/11 03:08:44;;;;;;;48.88;17.15;;;;;;;;;;4910590;29;20031;-83
2021/12/11 03:11:15;;;;;;;49.13;18.80;;;;;;;;;;4906304;29;20138;-84
2021/12/11 03:13:50;;;;;;;57.92;20.13;;;;;;;;;;4906566;29;20036;-84
2021/12/11 03:16:19;;;;;;;67.30;20.55;;;;;;;;;;4910493;29;20043;-84
2021/12/11 03:18:45;;;;;;;70.88;22.67;;;;;;;;;;4906688;29;20199;-84
2021/12/11 03:21:11;;;;;;;50.88;19.73;;;;;;;;;;4902834;29;20123;-83
2021/12/11 03:23:40;;;;;;;47.35;19.63;;;;;;;;;;4927259;29;20149;-83
2021/12/11 03:26:07;;;;;;;48.95;18.20;;;;;;;;;;4908937;29;20034;-82
2021/12/11 03:28:35;;;;;;;46.33;19.38;;;;;;;;;;4906658;29;20044;-84
2021/12/11 03:31:02;;;;;;;53.90;18.77;;;;;;;;;;4923741;29;20043;-83
2021/12/11 03:33:31;;;;;;;50.22;18.45;;;;;;;;;;4906038;29;20579;-83
2021/12/11 03:35:59;;;;;;;55.10;20.73;;;;;;;;;;4904504;29;20044;-83
2021/12/11 03:38:27;;;;;;;50.22;17.25;;;;;;;;;;4908196;29;20058;-83
2021/12/11 03:40:58;;;;;;;51.33;17.63;;;;;;;;;;4904275;29;20040;-83
2021/12/11 03:43:26;;;;;;;56.72;19.27;;;;;;;;;;4906797;29;20102;-84
2021/12/11 03:46:00;;;;;;;44.42;17.15;;;;;;;;;;4907310;29;20042;-83
2021/12/11 03:48:29;;;;;;;50.63;18.25;;;;;;;;;;4917493;29;20090;-83
2021/12/11 03:50:57;;;;;;;58.75;19.75;;;;;;;;;;4908674;29;20131;-84
2021/12/11 03:53:25;;;;;;;59.50;20.55;;;;;;;;;;4907112;29;20048;-84
2021/12/11 03:55:58;;;;;;;68.72;23.00;;;;;;;;;;4911275;29;20035;-83
2021/12/11 03:58:27;;;;;;;55.05;19.25;;;;;;;;;;4921822;29;20055;-83
2021/12/11 04:01:07;;;;;;;50.08;17.70;;;;;;;;;;4910843;29;20436;-84
2021/12/11 04:03:39;;;;;;;44.72;18.27;;;;;;;;;;4905084;28;20164;-83
2021/12/11 04:06:11;;;;;;;52.25;18.48;;;;;;;;;;4907695;29;20036;-84
2021/12/11 04:08:43;;;;;;;44.08;18.27;;;;;;;;;;4903074;29;20051;-84
2021/12/11 04:11:16;;;;;;;63.50;21.30;;;;;;;;;;4922524;29;20043;-83
2021/12/11 04:13:47;;;;;;;61.30;20.63;;;;;;;;;;4904496;29;22914;-84
2021/12/11 04:16:17;;;;;;;59.50;19.25;;;;;;;;;;4908055;29;20487;-83
2021/12/11 04:18:51;;;;;;;49.63;18.67;;;;;;;;;;4906872;29;20151;-83
2021/12/11 04:21:18;;;;;;;60.75;20.23;;;;;;;;;;4922063;29;20063;-84
2021/12/11 04:23:49;;;;;;;48.25;19.20;;;;;;;;;;4919597;29;20031;-83
2021/12/11 04:26:17;;;;;;;54.47;20.60;;;;;;;;;;4926447;29;20023;-83
2021/12/11 04:28:46;;;;;;;53.25;18.58;;;;;;;;;;4907863;29;20055;-83
2021/12/11 04:31:15;;;;;;;55.95;18.27;;;;;;;;;;4910141;29;20115;-83
2021/12/11 04:33:44;;;;;;;46.22;18.10;;;;;;;;;;4919884;29;20075;-84
2021/12/11 04:36:17;;;;;;;53.03;18.58;;;;;;;;;;4918225;29;20032;-83
2021/12/11 04:38:46;;;;;;;46.30;17.52;;;;;;;;;;4907259;29;20039;-83
2021/12/11 04:41:18;;;;;;;49.80;17.83;;;;;;;;;;4908583;29;20560;-84
2021/12/11 04:43:47;;;;;;;52.25;18.63;;;;;;;;;;4918577;29;20061;-83
2021/12/11 04:46:18;;;;;;;45.70;17.92;;;;;;;;;;4904576;29;20070;-84
2021/12/11 04:49:17;;;;;;;45.97;17.73;;;;;;;;;;4905759;29;20055;-84
2021/12/11 05:05:10;;;;;;;52.53;18.58;;;;;;;;;;4924719;28;20072;-84
2021/12/11 05:07:55;;;;;;;50.67;18.38;;;;;;;;;;4928083;29;20525;-85
2021/12/11 05:10:32;;;;;;;47.10;17.02;;;;;;;;;;4924174;29;20027;-84
2021/12/11 05:12:59;;;;;;;65.57;18.52;;;;;;;;;;4908142;29;20043;-83
2021/12/11 05:15:30;;;;;;;48.45;16.90;;;;;;;;;;4923613;29;20075;-84
2021/12/11 05:18:00;;;;;;;42.55;15.68;;;;;;;;;;4923920;29;20048;-84
2021/12/11 05:20:28;;;;;;;52.30;17.75;;;;;;;;;;4921499;29;20124;-83
2021/12/11 05:22:56;;;;;;;57.72;19.50;;;;;;;;;;4921792;29;20038;-84
2021/12/11 05:25:23;;;;;;;56.22;17.90;;;;;;;;;;4926655;29;20027;-84
2021/12/11 05:27:50;;;;;;;51.30;19.73;;;;;;;;;;4904080;29;20052;-84
2021/12/11 05:30:19;;;;;;;45.95;17.05;;;;;;;;;;4908944;29;20654;-83
2021/12/11 05:32:50;;;;;;;50.00;19.25;;;;;;;;;;4922937;29;20661;-85
2021/12/11 05:35:20;;;;;;;53.10;20.20;;;;;;;;;;4923125;29;20516;-85
2021/12/11 05:37:47;;;;;;;50.85;18.02;;;;;;;;;;4903111;29;20048;-85
2021/12/11 05:40:18;;;;;;;46.13;18.23;;;;;;;;;;4910595;29;20023;-84
2021/12/11 05:42:52;;;;;;;55.83;19.02;;;;;;;;;;4907221;29;20032;-84
2021/12/11 05:45:18;;;;;;;57.08;20.27;;;;;;;;;;4906458;29;20550;-85
2021/12/11 05:47:46;;;;;;;53.63;19.63;;;;;;;;;;4922456;29;20612;-84
2021/12/11 05:50:17;;;;;;;54.03;18.00;;;;;;;;;;4904362;29;20040;-85
2021/12/11 05:52:47;;;;;;;51.95;20.38;;;;;;;;;;4904449;29;20500;-85
2021/12/11 05:55:17;;;;;;;58.25;21.45;;;;;;;;;;4908241;29;20530;-85
2021/12/11 05:57:54;;;;;;;53.58;20.63;;;;;;;;;;4910470;29;20075;-84
2021/12/11 06:00:26;;;;;;;48.67;19.10;;;;;;;;;;4907142;29;20056;-85
2021/12/11 06:02:57;;;;;;;52.55;19.67;;;;;;;;;;4922491;29;20734;-84
2021/12/11 06:05:24;;;;;;;64.78;19.58;;;;;;;;;;4905363;29;20087;-85
2021/12/11 06:07:52;;;;;;;68.72;22.20;;;;;;;;;;4908420;29;20044;-85
2021/12/11 06:10:19;;;;;;;60.00;20.83;;;;;;;;;;4928064;29;20067;-84
2021/12/11 06:12:49;;;;;;;49.40;18.67;;;;;;;;;;4906524;29;20040;-84
2021/12/11 06:15:19;;;;;;;53.45;19.27;;;;;;;;;;4914427;29;20040;-83
2021/12/11 06:17:47;;;;;;;53.17;20.50;;;;;;;;;;4927713;29;20061;-85
2021/12/11 06:20:19;;;;;;;60.03;20.27;;;;;;;;;;4925463;29;20024;-84
2021/12/11 06:22:49;;;;;;;50.00;18.63;;;;;;;;;;4925836;29;20040;-84
2021/12/11 06:25:19;;;;;;;50.58;18.35;;;;;;;;;;4909873;29;20165;-85
2021/12/11 06:27:47;;;;;;;67.28;21.30;;;;;;;;;;4905503;29;20551;-84
2021/12/11 06:30:17;;;;;;;59.42;20.52;;;;;;;;;;4908071;29;20036;-84
2021/12/11 06:32:44;;;;;;;64.30;20.55;;;;;;;;;;4901283;29;20872;-85
2021/12/11 06:35:19;;;;;;;56.58;19.50;;;;;;;;;;4910901;29;20366;-84
2021/12/11 06:37:47;;;;;;;44.42;18.20;;;;;;;;;;4907806;29;20067;-84
2021/12/11 06:40:22;;;;;;;60.00;21.10;;;;;;;;;;4910830;29;20427;-85
2021/12/11 06:42:51;;;;;;;55.13;21.60;;;;;;;;;;4910304;29;20139;-85
2021/12/11 06:45:18;;;;;;;55.85;19.08;;;;;;;;;;4908761;29;20050;-84
2021/12/11 06:47:49;;;;;;;54.92;19.70;;;;;;;;;;4915108;29;20531;-84
2021/12/11 06:50:18;;;;;;;52.40;20.02;;;;;;;;;;4910877;29;20412;-83
2021/12/11 06:52:44;;;;;;;49.17;20.35;;;;;;;;;;4910202;29;20043;-84
2021/12/11 06:55:14;;;;;;;57.35;20.63;;;;;;;;;;4933809;29;20071;-84
2021/12/11 06:57:43;;;;;;;53.85;20.98;;;;;;;;;;4909623;29;20183;-85
2021/12/11 07:00:10;;;;;;;64.75;22.63;;;;;;;;;;4926090;29;20024;-85
2021/12/11 07:02:39;;;;;;;56.50;20.50;;;;;;;;;;4904558;29;20582;-84
2021/12/11 07:05:12;;;;;;;48.35;17.55;;;;;;;;;;4899168;28;20044;-83
2021/12/11 07:07:40;;;;;;;51.47;18.92;;;;;;;;;;4902473;29;20462;-84
2021/12/11 07:10:09;;;;;;;54.65;19.77;;;;;;;;;;4891195;29;20845;-85
2021/12/11 07:12:36;;;;;;;53.03;18.77;;;;;;;;;;4888879;29;20047;-85
2021/12/11 07:15:05;;;;;;;47.40;19.52;;;;;;;;;;4889764;29;20082;-84
2021/12/11 07:17:34;;;;;;;58.22;18.65;;;;;;;;;;4889370;29;20127;-84
2021/12/11 07:20:04;;;;;;;64.43;20.80;;;;;;;;;;4899471;29;20075;-85
2021/12/11 07:22:30;;;;;;;55.08;20.05;;;;;;;;;;4907524;29;20032;-85
2021/12/11 07:24:59;;;;;;;50.58;20.50;;;;;;;;;;4900914;29;20028;-84
2021/12/11 07:27:26;;;;;;;44.33;17.52;;;;;;;;;;4888640;29;20100;-84
2021/12/11 07:29:56;;;;;;;46.83;15.93;;;;;;;;;;4902962;29;20694;-84
2021/12/11 07:32:23;;;;;;;50.78;18.48;;;;;;;;;;4906607;29;20128;-84
2021/12/11 07:34:52;;;;;;;42.10;15.82;;;;;;;;;;4902748;29;20039;-83
2021/12/11 07:37:21;;;;;;;34.72;15.13;;;;;;;;;;4904434;29;20585;-83
2021/12/11 07:39:53;;;;;;;29.23;11.15;;;;;;;;;;4903775;29;20032;-84
2021/12/11 07:42:20;;;;;;;49.47;19.85;;;;;;;;;;4891969;29;20050;-84
2021/12/11 07:44:51;;;;;;;52.17;19.77;;;;;;;;;;4900335;29;21250;-84
2021/12/11 07:47:24;;;;;;;44.22;16.63;;;;;;;;;;4891617;29;20393;-83
2021/12/11 07:49:52;;;;;;;40.50;18.52;;;;;;;;;;4898547;29;20044;-84
2021/12/11 07:52:19;;;;;;;57.40;20.58;;;;;;;;;;4900858;29;20075;-84
2021/12/11 07:54:47;;;;;;;47.05;18.80;;;;;;;;;;4902100;29;20718;-84
2021/12/11 07:57:15;;;;;;;47.53;19.33;;;;;;;;;;4888300;29;20175;-84
2021/12/11 07:59:42;;;;;;;50.17;18.95;;;;;;;;;;4909064;29;20031;-84
2021/12/11 08:02:16;;;;;;;44.80;18.08;;;;;;;;;;4904639;29;20497;-84
2021/12/11 08:04:45;;;;;;;40.42;15.85;;;;;;;;;;4914532;28;20051;-84
2021/12/11 08:07:14;;;;;;;53.63;20.77;;;;;;;;;;4925233;29;20023;-83
2021/12/11 08:09:41;;;;;;;54.80;21.17;;;;;;;;;;4921199;29;20043;-85
2021/12/11 08:12:09;;;;;;;51.90;21.25;;;;;;;;;;4920072;29;20412;-84
2021/12/11 08:14:38;;;;;;;51.45;20.92;;;;;;;;;;4924870;29;20392;-84
2021/12/11 08:17:06;;;;;;;51.63;19.65;;;;;;;;;;4911708;29;20055;-84
2021/12/11 08:19:33;;;;;;;49.30;18.25;;;;;;;;;;4909007;29;20044;-82
2021/12/11 08:22:03;;;;;;;47.38;19.15;;;;;;;;;;4906842;29;20040;-83
2021/12/11 08:24:32;;;;;;;49.22;17.48;;;;;;;;;;4909887;29;20035;-83
2021/12/11 08:27:00;;;;;;;44.67;17.63;;;;;;;;;;4907106;29;20415;-82
2021/12/11 08:29:30;;;;;;;39.00;18.90;;;;;;;;;;4924153;29;20465;-83
2021/12/11 08:32:02;;;;;;;46.13;17.65;;;;;;;;;;4903801;29;20122;-83
2021/12/11 08:34:30;;;;;;;48.47;18.55;;;;;;;;;;4922690;29;20467;-83
2021/12/11 08:37:03;;;;;;;45.63;19.13;;;;;;;;;;4902961;29;20077;-83
2021/12/11 08:39:29;;;;;;;42.72;17.38;;;;;;;;;;4907250;29;20036;-84
2021/12/11 08:42:06;;;;;;;46.92;20.90;;;;;;;;;;4912204;29;20031;-83
2021/12/11 08:44:37;;;;;;;57.72;19.98;;;;;;;;;;4920335;29;20404;-83
2021/12/11 08:47:13;;;;;;;39.47;16.30;;;;;;;;;;4922158;29;20500;-83
2021/12/11 08:49:42;;;;;;;49.22;16.35;;;;;;;;;;4905719;29;20040;-83
2021/12/11 08:52:22;;;;;;;41.78;15.18;;;;;;;;;;4908569;29;20431;-82
2021/12/11 08:54:50;;;;;;;48.85;18.25;;;;;;;;;;4921166;29;20543;-82
2021/12/11 08:57:21;;;;;;;51.78;20.38;;;;;;;;;;4910040;29;20074;-83
2021/12/11 08:59:51;;;;;;;49.60;20.20;;;;;;;;;;4918813;29;20480;-83
2021/12/11 09:02:24;;;;;;;54.63;20.27;;;;;;;;;;4924684;29;20353;-83
2021/12/11 09:04:55;;;;;;;50.53;19.60;;;;;;;;;;4912752;28;20749;-83
2021/12/11 09:07:30;;;;;;;23.77;9.38;;;;;;;;;;4909766;29;20071;-83
2021/12/11 09:10:15;;;;;;;53.35;20.15;;;;;;;;;;4907931;29;20028;-82
2021/12/11 09:12:43;;;;;;;49.15;18.05;;;;;;;;;;4908405;29;20043;-82
2021/12/11 09:15:10;;;;;;;46.58;19.02;;;;;;;;;;4909814;29;20131;-84
2021/12/11 09:17:41;;;;;;;45.60;19.02;;;;;;;;;;4902027;29;20063;-83
2021/12/11 09:20:11;;;;;;;53.78;20.27;;;;;;;;;;4922070;29;20567;-82
2021/12/11 09:22:39;;;;;;;53.53;20.30;;;;;;;;;;4903411;29;20070;-83
2021/12/11 09:25:09;;;;;;;56.60;22.27;;;;;;;;;;4908642;29;20039;-84
2021/12/11 09:27:47;;;;;;;61.03;22.02;;;;;;;;;;4917249;29;20067;-83
2021/12/11 09:30:20;;;;;;;49.20;19.85;;;;;;;;;;4925682;29;20051;-83
2021/12/11 09:32:48;;;;;;;56.13;19.27;;;;;;;;;;4903670;29;20369;-83
2021/12/11 09:35:15;;;;;;;47.63;18.65;;;;;;;;;;4922381;29;20064;-82
2021/12/11 09:37:46;;;;;;;53.88;19.38;;;;;;;;;;4920618;29;20067;-82
2021/12/11 09:40:19;;;;;;;43.78;18.23;;;;;;;;;;4912613;29;20087;-84
2021/12/11 09:42:45;;;;;;;45.28;19.20;;;;;;;;;;4891696;29;20055;-81
2021/12/11 09:45:14;;;;;;;39.72;16.67;;;;;;;;;;4906452;29;20042;-81
2021/12/11 09:47:47;;;;;;;40.20;17.83;;;;;;;;;;4928397;29;20099;-81
2021/12/11 09:50:17;;;;;;;43.60;16.95;;;;;;;;;;4909591;29;20067;-81
2021/12/11 09:52:46;;;;;;;40.50;17.10;;;;;;;;;;4924480;29;20050;-81
2021/12/11 09:55:26;;;;;;;42.35;17.92;;;;;;;;;;4911468;29;20134;-83
2021/12/11 09:57:57;;;;;;;41.85;17.30;;;;;;;;;;4926064;29;20570;-83
2021/12/11 10:00:35;;;;;;;44.15;19.13;;;;;;;;;;4921620;29;20419;-83
2021/12/11 10:03:05;;;;;;;46.33;18.15;;;;;;;;;;4909637;29;20028;-84
2021/12/11 10:05:42;;;;;;;41.90;18.02;;;;;;;;;;4924076;28;20530;-83
2021/12/11 10:08:32;;;;;;;32.97;14.35;;;;;;;;;;4927768;29;20030;-82
2021/12/11 10:11:02;;;;;;;37.90;16.58;;;;;;;;;;4906954;29;20681;-84
2021/12/11 10:13:30;;;;;;;33.80;15.30;;;;;;;;;;4911090;29;20039;-83
2021/12/11 10:15:57;;;;;;;42.80;16.58;;;;;;;;;;4907099;29;20047;-83
2021/12/11 10:18:25;;;;;;;31.45;14.85;;;;;;;;;;4901974;29;20436;-83
2021/12/11 10:21:07;;;;;;;33.30;15.40;;;;;;;;;;4910529;29;20032;-83
2021/12/11 10:23:36;;;;;;;31.33;14.00;;;;;;;;;;4919790;29;20492;-83
2021/12/11 10:26:09;;;;;;;32.45;15.32;;;;;;;;;;4925271;29;20048;-83
2021/12/11 10:28:41;;;;;;;33.58;16.35;;;;;;;;;;4920274;29;20051;-83
2021/12/11 10:31:13;;;;;;;34.97;16.42;;;;;;;;;;4913265;29;20504;-83
2021/12/11 10:33:40;;;;;;;31.95;14.65;;;;;;;;;;4909016;29;20513;-83
2021/12/11 10:36:09;;;;;;;32.00;16.48;;;;;;;;;;4919906;29;20062;-83
2021/12/11 10:38:36;;;;;;;32.53;16.60;;;;;;;;;;4913547;29;20483;-83
2021/12/11 10:41:05;;;;;;;41.22;18.17;;;;;;;;;;4928341;29;20071;-84
2021/12/11 10:43:35;;;;;;;42.22;17.40;;;;;;;;;;4912355;29;20032;-83
2021/12/11 10:46:04;;;;;;;35.28;17.13;;;;;;;;;;4926375;29;20063;-83
2021/12/11 10:48:33;;;;;;;37.78;17.45;;;;;;;;;;4908996;29;20126;-84
2021/12/11 10:51:02;;;;;;;38.20;16.95;;;;;;;;;;4924457;29;20050;-84
2021/12/11 10:53:30;;;;;;;35.42;18.02;;;;;;;;;;4921989;29;20059;-85
2021/12/11 10:55:58;;;;;;;32.53;15.93;;;;;;;;;;4923697;29;20032;-83
2021/12/11 10:58:27;;;;;;;35.33;18.63;;;;;;;;;;4908734;29;20059;-83
2021/12/11 11:00:59;;;;;;;20.23;8.63;;;;;;;;;;4909552;29;20044;-83
2021/12/11 11:03:30;;;;;;;32.25;16.15;;;;;;;;;;4923778;29;20377;-83
2021/12/11 11:05:57;;;;;;;43.83;18.52;;;;;;;;;;4921185;28;20139;-84
2021/12/11 11:08:26;;;;;;;32.15;17.30;;;;;;;;;;4912726;29;20685;-84
2021/12/11 11:10:56;;;;;;;32.60;18.00;;;;;;;;;;4908269;29;20314;-83
2021/12/11 11:13:23;;;;;;;36.20;18.33;;;;;;;;;;4911819;29;20115;-84
2021/12/11 11:15:50;;;;;;;39.42;20.10;;;;;;;;;;4923516;29;20102;-84
2021/12/11 11:18:18;;;;;;;34.10;19.52;;;;;;;;;;4924750;29;20265;-84
2021/12/11 11:20:48;;;;;;;32.30;15.70;;;;;;;;;;4904671;29;20553;-84
2021/12/11 11:23:15;;;;;;;39.55;14.60;;;;;;;;;;4923139;29;20024;-84
2021/12/11 11:25:45;;;;;;;34.33;13.38;;;;;;;;;;4922141;29;20409;-84
2021/12/11 11:28:13;;;;;;;32.80;14.63;;;;;;;;;;4923704;29;20024;-83
2021/12/11 11:30:43;;;;;;;26.63;14.18;;;;;;;;;;4922182;29;21432;-84
2021/12/11 11:33:09;;;;;;;37.90;15.20;;;;;;;;;;4923703;29;20484;-83
2021/12/11 11:35:42;;;;;;;29.05;13.80;;;;;;;;;;4906057;29;20051;-82
2021/12/11 11:38:13;;;;;;;28.48;13.13;;;;;;;;;;4909859;29;20070;-83
2021/12/11 11:40:42;;;;;;;37.50;15.18;;;;;;;;;;4927183;29;20042;-83
2021/12/11 11:43:09;;;;;;;41.53;15.40;;;;;;;;;;4909587;29;20036;-83
2021/12/11 11:45:36;;;;;;;26.88;11.20;;;;;;;;;;4907736;29;20050;-84
2021/12/11 11:48:03;;;;;;;31.08;11.65;;;;;;;;;;4907098;29;20502;-83
2021/12/11 11:50:32;;;;;;;29.05;11.80;;;;;;;;;;4925074;29;20032;-83
2021/12/11 11:52:58;;;;;;;37.15;14.00;;;;;;;;;;4918847;29;20032;-84
2021/12/11 11:55:27;;;;;;;34.88;16.55;;;;;;;;;;4922960;29;20381;-83
2021/12/11 11:57:55;;;;;;;29.35;12.98;;;;;;;;;;4901002;29;20024;-84
2021/12/11 12:00:24;;;;;;;31.70;13.20;;;;;;;;;;4909304;29;20051;-83
2021/12/11 12:02:50;;;;;;;41.70;15.85;;;;;;;;;;4905091;29;20578;-84
2021/12/11 12:05:16;;;;;;;31.98;13.20;;;;;;;;;;4921998;28;20047;-83
2021/12/11 12:07:43;;;;;;;25.75;12.88;;;;;;;;;;4917630;29;20050;-82
2021/12/11 12:10:12;;;;;;;35.60;14.57;;;;;;;;;;4926178;29;20054;-81
2021/12/11 12:12:39;;;;;;;38.20;16.75;;;;;;;;;;4905645;29;20094;-82
2021/12/11 12:15:09;;;;;;;28.58;12.70;;;;;;;;;;4902607;29;20481;-82
2021/12/11 12:17:36;;;;;;;25.33;13.77;;;;;;;;;;4905976;29;20479;-83
2021/12/11 12:20:07;;;;;;;35.22;15.30;;;;;;;;;;4929903;29;20031;-82
2021/12/11 12:22:33;;;;;;;25.02;11.48;;;;;;;;;;4908898;29;20498;-81
2021/12/11 12:25:01;;;;;;;32.42;13.50;;;;;;;;;;4904288;29;20164;-82
2021/12/11 12:27:29;;;;;;;19.40;9.48;;;;;;;;;;4906746;29;20514;-82
2021/12/11 12:29:56;;;;;;;25.27;10.85;;;;;;;;;;4916293;29;20512;-82
2021/12/11 12:32:24;;;;;;;30.20;12.23;;;;;;;;;;4924973;29;20028;-81
2021/12/11 12:34:52;;;;;;;29.08;12.07;;;;;;;;;;4910941;29;20062;-81
2021/12/11 12:37:19;;;;;;;23.65;7.85;;;;;;;;;;4910658;29;20098;-81
2021/12/11 12:39:48;;;;;;;30.75;15.05;;;;;;;;;;4906041;29;20456;-82
2021/12/11 12:42:31;;;;;;;22.55;9.82;;;;;;;;;;4922940;29;20027;-82
2021/12/11 12:45:05;;;;;;;34.30;14.85;;;;;;;;;;4903710;29;20047;-83
2021/12/11 12:47:35;;;;;;;25.55;10.80;;;;;;;;;;4918231;29;20039;-82
2021/12/11 12:50:05;;;;;;;34.03;15.10;;;;;;;;;;4908308;29;20050;-82
2021/12/11 12:52:34;;;;;;;29.73;13.02;;;;;;;;;;4903258;29;20047;-82
2021/12/11 12:55:02;;;;;;;27.73;13.23;;;;;;;;;;4906498;29;20424;-82
2021/12/11 12:57:32;;;;;;;30.52;14.05;;;;;;;;;;4908723;29;20050;-81
2021/12/11 13:00:01;;;;;;;32.55;16.40;;;;;;;;;;4922539;29;20028;-82
2021/12/11 13:02:29;;;;;;;36.35;14.93;;;;;;;;;;4900467;29;20032;-84
2021/12/11 13:05:14;;;;;;;31.23;12.82;;;;;;;;;;4909821;28;20305;-81
2021/12/11 13:07:41;;;;;;;29.30;12.50;;;;;;;;;;4914443;29;20032;-81
2021/12/11 13:10:10;;;;;;;27.05;12.50;;;;;;;;;;4908847;29;20385;-82
2021/12/11 13:12:38;;;;;;;21.05;10.52;;;;;;;;;;4913059;29;20055;-82
2021/12/11 13:15:10;;;;;;;26.80;11.48;;;;;;;;;;4930512;29;20536;-82
2021/12/11 13:17:40;;;;;;;22.05;9.77;;;;;;;;;;4920067;29;20629;-82
2021/12/11 13:20:11;;;;;;;26.05;10.95;;;;;;;;;;4916789;29;20050;-82
2021/12/11 13:22:40;;;;;;;30.02;9.40;;;;;;;;;;4925571;29;20040;-82
2021/12/11 13:25:12;;;;;;;25.65;12.63;;;;;;;;;;4931205;29;20522;-82
2021/12/11 13:27:39;;;;;;;31.63;13.90;;;;;;;;;;4924753;29;20032;-82
2021/12/11 13:30:08;;;;;;;30.17;13.52;;;;;;;;;;4928915;29;20043;-82
2021/12/11 13:32:35;;;;;;;28.15;12.13;;;;;;;;;;4918606;29;20468;-82
2021/12/11 13:35:13;;;;;;;28.08;12.10;;;;;;;;;;4923952;29;20031;-82
2021/12/11 13:37:40;;;;;;;28.35;12.98;;;;;;;;;;4923640;29;20067;-82
2021/12/11 13:40:08;;;;;;;29.67;13.38;;;;;;;;;;4908874;29;20036;-82
2021/12/11 13:42:36;;;;;;;30.48;12.88;;;;;;;;;;4925284;29;20032;-82
2021/12/11 13:45:07;;;;;;;31.67;13.30;;;;;;;;;;4923938;29;20047;-83
2021/12/11 13:47:36;;;;;;;32.05;13.63;;;;;;;;;;4912539;29;20050;-82
2021/12/11 13:50:05;;;;;;;26.42;9.85;;;;;;;;;;4906195;29;20621;-81
2021/12/11 13:52:32;;;;;;;27.35;11.65;;;;;;;;;;4925122;29;20027;-82
2021/12/11 13:54:59;;;;;;;15.55;7.28;;;;;;;;;;4912059;29;20035;-83
2021/12/11 13:57:26;;;;;;;40.13;13.02;;;;;;;;;;4928416;29;20046;-82
2021/12/11 13:59:57;;;;;;;36.85;14.90;;;;;;;;;;4922847;29;20152;-82
2021/12/11 14:02:25;;;;;;;30.83;12.75;;;;;;;;;;4930402;29;20036;-82
2021/12/11 14:04:53;;;;;;;29.40;11.45;;;;;;;;;;4923170;28;20054;-82
2021/12/11 14:07:22;;;;;;;25.38;10.88;;;;;;;;;;4926010;29;20043;-82
2021/12/11 14:09:59;;;;;;;31.92;14.25;;;;;;;;;;4926857;29;20516;-83
2021/12/11 14:12:28;;;;;;;30.92;13.38;;;;;;;;;;4926582;29;20038;-82
2021/12/11 14:14:55;;;;;;;30.42;13.10;;;;;;;;;;4913906;29;20036;-82
2021/12/11 14:17:23;;;;;;;21.20;11.23;;;;;;;;;;4929740;29;20373;-82
2021/12/11 14:19:50;;;;;;;41.90;15.32;;;;;;;;;;4908250;29;20031;-82
2021/12/11 14:22:19;;;;;;;33.72;14.32;;;;;;;;;;4926586;29;20391;-82
2021/12/11 14:24:45;;;;;;;36.08;14.68;;;;;;;;;;4925851;29;20415;-82
2021/12/11 14:27:14;;;;;;;32.25;13.65;;;;;;;;;;4910204;29;20032;-83
2021/12/11 14:29:45;;;;;;;33.88;14.98;;;;;;;;;;4925119;29;20031;-83
2021/12/11 14:32:12;;;;;;;31.02;12.98;;;;;;;;;;4920469;29;20629;-83
2021/12/11 14:34:39;;;;;;;35.13;13.57;;;;;;;;;;4912446;29;20096;-83
2021/12/11 14:37:06;;;;;;;31.90;13.55;;;;;;;;;;4924873;29;20059;-82
2021/12/11 14:39:32;;;;;;;35.47;14.85;;;;;;;;;;4913450;29;20162;-82
2021/12/11 14:41:59;;;;;;;28.52;12.00;;;;;;;;;;4909367;29;20032;-82
2021/12/11 14:44:28;;;;;;;29.65;12.45;;;;;;;;;;4928774;29;20051;-83
2021/12/11 14:46:55;;;;;;;32.78;13.30;;;;;;;;;;4926073;29;20528;-82
2021/12/11 14:49:23;;;;;;;34.38;13.23;;;;;;;;;;4933721;29;20058;-81